createdAt,value
2022-10-23T00:00:14.976Z,71.08
2022-10-23T00:02:41.893Z,71.56
2022-10-23T00:05:09.038Z,72.06
2022-10-23T00:07:35.555Z,72.07
2022-10-23T00:10:02.173Z,71.57
2022-10-23T00:12:28.857Z,71.18
2022-10-23T00:14:55.418Z,71.24
2022-10-23T00:17:22.127Z,71.31
2022-10-23T00:19:49.165Z,71.43
2022-10-23T00:22:15.788Z,71.27
2022-10-23T00:24:42.439Z,71.41
2022-10-23T00:27:09.132Z,71.15
2022-10-23T00:29:35.638Z,71.93
2022-10-23T00:32:02.337Z,72.65
2022-10-23T00:34:28.897Z,73.83
2022-10-23T00:36:56.246Z,74.92
2022-10-23T00:39:22.789Z,75.24
2022-10-23T00:41:49.306Z,76.30
2022-10-23T00:44:18.932Z,75.16
2022-10-23T00:46:46.209Z,74.44
2022-10-23T00:49:13.438Z,74.13
2022-10-23T00:51:45.920Z,73.71
2022-10-23T00:54:29.445Z,73.22
2022-10-23T00:57:01.433Z,73.40
2022-10-23T00:59:28.566Z,73.21
2022-10-23T01:01:55.336Z,73.56
2022-10-23T01:04:22.958Z,73.96
2022-10-23T01:07:04.707Z,74.00
2022-10-23T01:09:38.105Z,73.29
2022-10-23T01:12:13.743Z,73.56
2022-10-23T01:14:54.753Z,75.40
2022-10-23T01:17:24.730Z,77.00
2022-10-23T01:20:16.309Z,77.04
2022-10-23T01:22:45.906Z,76.63
2022-10-23T01:25:40.556Z,75.66
2022-10-23T01:28:10.893Z,75.28
2022-10-23T01:33:18.346Z,74.25
2022-10-23T01:35:52.006Z,73.70
2022-10-23T01:38:27.548Z,73.52
2022-10-23T01:41:04.389Z,73.19
2022-10-23T01:43:45.344Z,73.09
2022-10-23T01:46:14.925Z,73.01
2022-10-23T01:48:43.548Z,72.17
2022-10-23T01:51:11.818Z,73.05
2022-10-23T01:53:41.301Z,73.19
2022-10-23T01:56:12.471Z,74.04
2022-10-23T01:58:40.148Z,75.42
2022-10-23T02:01:07.767Z,75.30
2022-10-23T02:03:47.208Z,74.98
2022-10-23T02:06:14.034Z,75.70
2022-10-23T02:08:40.518Z,75.74
2022-10-23T02:11:14.041Z,76.25
2022-10-23T02:13:50.680Z,74.93
2022-10-23T02:16:28.053Z,74.22
2022-10-23T02:19:15.867Z,74.15
2022-10-23T02:21:52.521Z,73.59
2022-10-23T02:24:26.123Z,73.47
2022-10-23T02:26:56.774Z,73.40
2022-10-23T02:29:28.240Z,74.02
2022-10-23T02:31:57.933Z,73.05
2022-10-23T02:34:25.300Z,72.71
2022-10-23T02:36:52.611Z,73.06
2022-10-23T02:39:22.937Z,73.02
2022-10-23T02:42:10.739Z,72.60
2022-10-23T02:44:58.958Z,73.50
2022-10-23T02:47:46.618Z,73.82
2022-10-23T02:50:42.692Z,73.52
2022-10-23T02:53:29.293Z,72.73
2022-10-23T02:56:10.099Z,72.24
2022-10-23T02:58:36.650Z,72.89
2022-10-23T03:01:06.531Z,72.79
2022-10-23T03:03:36.584Z,72.10
2022-10-23T03:06:05.059Z,72.48
2022-10-23T03:08:41.989Z,72.01
2022-10-23T03:11:08.561Z,72.76
2022-10-23T03:13:35.138Z,72.86
2022-10-23T03:16:02.565Z,73.56
2022-10-23T03:18:30.116Z,73.55
2022-10-23T03:20:59.000Z,72.52
2022-10-23T03:23:25.736Z,72.39
2022-10-23T03:25:53.554Z,73.10
2022-10-23T03:28:35.542Z,73.87
2022-10-23T03:31:02.973Z,73.74
2022-10-23T03:33:30.721Z,74.17
2022-10-23T03:36:05.875Z,73.92
2022-10-23T03:38:32.911Z,73.54
2022-10-23T03:40:59.490Z,73.16
2022-10-23T03:43:28.077Z,72.54
2022-10-23T03:45:56.614Z,73.03
2022-10-23T03:48:26.042Z,73.14
2022-10-23T03:50:59.874Z,72.99
2022-10-23T03:53:26.470Z,72.40
2022-10-23T03:55:53.043Z,74.34
2022-10-23T03:58:19.589Z,73.71
2022-10-23T04:00:46.100Z,73.66
2022-10-23T04:03:12.604Z,73.40
2022-10-23T04:05:41.172Z,73.14
2022-10-23T04:08:08.903Z,72.90
2022-10-23T04:10:35.735Z,72.64
2022-10-23T04:13:02.364Z,72.34
2022-10-23T04:15:32.632Z,72.36
2022-10-23T04:18:01.162Z,71.65
2022-10-23T04:20:27.834Z,72.25
2022-10-23T04:22:54.313Z,72.53
2022-10-23T04:25:20.903Z,71.74
2022-10-23T04:27:48.445Z,72.13
2022-10-23T04:30:15.061Z,71.42
2022-10-23T04:32:41.809Z,72.21
2022-10-23T04:35:08.751Z,73.74
2022-10-23T04:37:35.430Z,74.39
2022-10-23T04:40:01.977Z,74.25
2022-10-23T04:42:28.571Z,74.13
2022-10-23T04:44:57.149Z,75.29
2022-10-23T04:47:24.984Z,75.12
2022-10-23T04:49:57.323Z,74.30
2022-10-23T04:52:42.777Z,73.46
2022-10-23T04:55:28.601Z,73.53
2022-10-23T04:58:13.396Z,73.99
2022-10-23T05:00:41.149Z,74.76
2022-10-23T05:03:08.814Z,74.61
2022-10-23T05:05:39.719Z,74.27
2022-10-23T05:08:22.726Z,74.33
2022-10-23T05:11:17.238Z,74.64
2022-10-23T05:13:47.233Z,74.62
2022-10-23T05:16:39.902Z,73.67
2022-10-23T05:19:07.845Z,73.28
2022-10-23T05:21:35.344Z,72.81
2022-10-23T05:24:05.361Z,72.59
2022-10-23T05:26:32.114Z,72.26
2022-10-23T05:29:04.011Z,71.90
2022-10-23T05:31:30.813Z,71.82
2022-10-23T05:34:08.709Z,71.84
2022-10-23T05:36:41.347Z,71.57
2022-10-23T05:39:08.073Z,71.87
2022-10-23T05:41:35.367Z,71.94
2022-10-23T05:44:02.318Z,72.20
2022-10-23T05:46:52.118Z,73.05
2022-10-23T05:49:38.525Z,72.72
2022-10-23T05:52:25.730Z,72.05
2022-10-23T05:55:11.039Z,72.04
2022-10-23T05:57:56.070Z,71.35
2022-10-23T06:00:40.583Z,71.31
2022-10-23T06:03:27.171Z,71.60
2022-10-23T06:05:53.966Z,71.36
2022-10-23T06:08:31.792Z,71.65
2022-10-23T06:10:58.591Z,71.59
2022-10-23T06:13:25.162Z,71.93
2022-10-23T06:15:51.648Z,71.66
2022-10-23T06:18:20.531Z,71.41
2022-10-23T06:21:00.423Z,71.91
2022-10-23T06:23:27.544Z,71.91
2022-10-23T06:26:18.271Z,71.54
2022-10-23T06:29:07.746Z,71.77
2022-10-23T06:31:34.737Z,70.92
2022-10-23T06:34:02.516Z,71.18
2022-10-23T06:36:31.253Z,71.13
2022-10-23T06:39:05.962Z,71.31
2022-10-23T06:42:08.006Z,71.54
2022-10-23T06:44:53.068Z,71.50
2022-10-23T06:47:43.068Z,71.08
2022-10-23T06:50:31.119Z,70.22
2022-10-23T06:52:59.718Z,70.57
2022-10-23T06:55:26.541Z,70.86
2022-10-23T06:57:53.644Z,70.38
2022-10-23T07:00:21.493Z,70.59
2022-10-23T07:02:52.622Z,70.65
2022-10-23T07:05:19.880Z,70.47
2022-10-23T07:07:46.558Z,70.18
2022-10-23T07:10:18.580Z,70.33
2022-10-23T07:12:50.664Z,69.96
2022-10-23T07:15:29.938Z,69.65
2022-10-23T07:17:57.692Z,70.33
2022-10-23T07:20:26.389Z,69.74
2022-10-23T07:22:54.777Z,69.56
2022-10-23T07:25:30.399Z,69.34
2022-10-23T07:27:59.836Z,69.12
2022-10-23T07:30:29.993Z,68.99
2022-10-23T07:33:13.645Z,68.73
2022-10-23T07:35:52.891Z,69.09
2022-10-23T07:38:25.181Z,68.53
2022-10-23T07:40:54.118Z,68.55
2022-10-23T07:43:23.118Z,68.62
2022-10-23T07:45:55.827Z,69.26
2022-10-23T07:48:36.056Z,68.83
2022-10-23T07:51:08.421Z,68.29
2022-10-23T07:53:40.220Z,68.68
2022-10-23T07:56:31.640Z,68.93
2022-10-23T07:59:29.376Z,69.35
2022-10-23T08:02:06.453Z,69.19
2022-10-23T08:04:43.839Z,69.87
2022-10-23T08:07:21.496Z,69.98
2022-10-23T08:09:50.709Z,69.82
2022-10-23T08:12:24.874Z,68.95
2022-10-23T08:14:51.430Z,69.38
2022-10-23T08:17:18.183Z,68.88
2022-10-23T08:20:01.461Z,68.03
2022-10-23T08:22:43.918Z,67.47
2022-10-23T08:25:24.716Z,67.90
2022-10-23T08:27:54.701Z,67.63
2022-10-23T08:30:21.577Z,68.75
2022-10-23T08:32:51.830Z,67.23
2022-10-23T08:35:18.594Z,67.65
2022-10-23T08:37:45.638Z,67.04
2022-10-23T08:40:22.957Z,66.72
2022-10-23T08:43:16.436Z,66.18
2022-10-23T08:46:04.133Z,65.92
2022-10-23T08:49:00.433Z,65.58
2022-10-23T08:51:47.834Z,65.64
2022-10-23T08:54:17.055Z,65.61
2022-10-23T08:56:51.401Z,66.25
2022-10-23T08:59:26.223Z,66.81
2022-10-23T09:02:01.393Z,66.63
2022-10-23T09:04:28.610Z,65.94
2022-10-23T09:07:16.607Z,66.33
2022-10-23T09:09:52.334Z,65.96
2022-10-23T09:12:22.719Z,66.51
2022-10-23T09:17:33.251Z,66.59
2022-10-23T09:20:18.439Z,66.34
2022-10-23T09:22:46.120Z,64.58
2022-10-23T09:25:23.166Z,65.52
2022-10-23T09:27:56.090Z,63.61
2022-10-23T09:30:28.204Z,62.53
2022-10-23T09:32:54.744Z,63.75
2022-10-23T09:35:27.143Z,65.25
2022-10-23T09:37:54.973Z,62.99
2022-10-23T09:40:38.919Z,60.51
2022-10-23T09:43:17.826Z,60.87
2022-10-23T09:45:44.746Z,62.41
2022-10-23T09:48:18.141Z,61.52
2022-10-23T09:50:52.700Z,61.41
2022-10-23T09:53:40.438Z,62.90
2022-10-23T09:56:24.809Z,63.38
2022-10-23T09:58:57.891Z,59.91
2022-10-23T10:01:33.363Z,60.90
2022-10-23T10:04:39.877Z,58.88
2022-10-23T10:07:18.806Z,62.72
2022-10-23T10:09:45.806Z,60.04
2022-10-23T10:12:24.109Z,60.62
2022-10-23T10:15:01.772Z,58.75
2022-10-23T10:18:03.209Z,58.12
2022-10-23T10:20:58.705Z,58.75
2022-10-23T10:23:43.028Z,58.61
2022-10-23T10:26:38.020Z,58.68
2022-10-23T10:29:30.884Z,60.14
2022-10-23T10:32:18.051Z,60.64
2022-10-23T10:34:53.257Z,61.24
2022-10-23T10:38:10.478Z,60.71
2022-10-23T10:40:44.521Z,59.33
2022-10-23T10:43:36.865Z,58.81
2022-10-23T10:46:41.845Z,59.26
2022-10-23T10:49:31.466Z,55.53
2022-10-23T10:52:30.484Z,58.04
2022-10-23T10:55:17.999Z,57.04
2022-10-23T10:58:08.677Z,57.49
2022-10-23T11:00:35.519Z,56.78
2022-10-23T11:03:29.532Z,57.26
2022-10-23T11:05:57.614Z,57.58
2022-10-23T11:08:44.609Z,55.59
2022-10-23T11:11:34.074Z,57.46
2022-10-23T11:14:00.814Z,58.31
2022-10-23T11:16:33.915Z,58.41
2022-10-23T11:19:03.421Z,57.58
2022-10-23T11:21:54.928Z,57.09
2022-10-23T11:24:27.572Z,56.83
2022-10-23T11:27:19.789Z,56.28
2022-10-23T11:30:12.103Z,55.36
2022-10-23T11:32:45.036Z,55.67
2022-10-23T11:35:23.899Z,55.92
2022-10-23T11:38:05.596Z,55.37
2022-10-23T11:40:32.840Z,56.07
2022-10-23T11:42:59.521Z,55.36
2022-10-23T11:45:39.989Z,54.56
2022-10-23T11:48:21.587Z,54.49
2022-10-23T11:50:49.785Z,53.89
2022-10-23T11:53:31.497Z,53.70
2022-10-23T11:56:00.591Z,53.79
2022-10-23T11:58:47.254Z,53.86
2022-10-23T12:01:28.812Z,53.83
2022-10-23T12:04:13.823Z,54.44
2022-10-23T12:06:47.722Z,54.16
2022-10-23T12:09:46.441Z,52.62
2022-10-23T12:12:27.681Z,53.99
2022-10-23T12:14:54.786Z,53.40
2022-10-23T12:17:24.434Z,53.95
2022-10-23T12:19:55.238Z,54.25
2022-10-23T12:22:24.675Z,54.26
2022-10-23T12:25:13.055Z,53.96
2022-10-23T12:27:57.130Z,55.12
2022-10-23T12:30:34.635Z,54.60
2022-10-23T12:33:24.758Z,54.49
2022-10-23T12:36:25.877Z,53.58
2022-10-23T12:38:54.638Z,53.27
2022-10-23T12:41:26.766Z,53.57
2022-10-23T12:43:56.227Z,53.69
2022-10-23T12:46:41.327Z,54.92
2022-10-23T12:49:19.056Z,54.66
2022-10-23T12:51:46.501Z,53.56
2022-10-23T12:54:20.466Z,55.81
2022-10-23T12:56:47.205Z,55.12
2022-10-23T12:59:17.057Z,54.08
2022-10-23T13:01:44.760Z,55.15
2022-10-23T13:04:31.399Z,50.67
2022-10-23T13:07:00.039Z,53.03
2022-10-23T13:09:33.073Z,52.10
2022-10-23T13:12:20.774Z,53.69
2022-10-23T13:15:08.926Z,53.31
2022-10-23T13:17:43.323Z,53.69
2022-10-23T13:20:10.320Z,53.63
2022-10-23T13:22:36.981Z,55.91
2022-10-23T13:25:20.566Z,57.33
2022-10-23T13:27:47.293Z,56.36
2022-10-23T13:30:31.716Z,56.73
2022-10-23T13:32:58.310Z,59.35
2022-10-23T13:35:25.732Z,56.99
2022-10-23T13:37:53.722Z,58.40
2022-10-23T13:40:27.043Z,57.63
2022-10-23T13:42:55.148Z,58.47
2022-10-23T13:45:24.940Z,58.77
2022-10-23T13:47:51.865Z,58.53
2022-10-23T13:50:19.090Z,58.97
2022-10-23T13:52:45.784Z,59.77
2022-10-23T13:55:25.066Z,59.92
2022-10-23T13:57:52.578Z,60.05
2022-10-23T14:00:19.399Z,59.15
2022-10-23T14:02:47.009Z,58.61
2022-10-23T14:05:13.620Z,59.09
2022-10-23T14:07:40.263Z,59.23
2022-10-23T14:10:07.435Z,59.51
2022-10-23T14:12:44.525Z,59.27
2022-10-23T14:15:11.858Z,59.21
2022-10-23T14:17:38.500Z,59.46
2022-10-23T14:20:06.419Z,59.90
2022-10-23T14:22:33.239Z,60.47
2022-10-23T14:24:59.761Z,60.97
2022-10-23T14:27:26.716Z,61.38
2022-10-23T14:29:53.263Z,61.41
2022-10-23T14:32:19.771Z,60.37
2022-10-23T14:34:50.440Z,59.52
2022-10-23T14:37:18.069Z,59.24
2022-10-23T14:39:49.578Z,58.99
2022-10-23T14:42:17.389Z,59.43
2022-10-23T14:44:44.674Z,60.86
2022-10-23T14:47:11.871Z,60.76
2022-10-23T14:49:40.086Z,60.05
2022-10-23T14:52:07.914Z,60.26
2022-10-23T14:54:36.203Z,60.92
2022-10-23T14:57:03.276Z,60.12
2022-10-23T14:59:30.001Z,60.14
2022-10-23T15:01:56.600Z,59.88
2022-10-23T15:04:23.256Z,58.79
2022-10-23T15:06:49.986Z,58.73
2022-10-23T15:09:18.192Z,58.96
2022-10-23T15:11:44.806Z,58.90
2022-10-23T15:14:11.508Z,58.60
2022-10-23T15:16:41.449Z,58.58
2022-10-23T15:19:17.057Z,59.09
2022-10-23T15:21:49.282Z,57.93
2022-10-23T15:24:17.464Z,58.53
2022-10-23T15:26:44.658Z,58.97
2022-10-23T15:29:12.008Z,59.44
2022-10-23T15:31:38.528Z,60.02
2022-10-23T15:34:05.838Z,60.84
2022-10-23T15:36:32.656Z,61.52
2022-10-23T15:38:59.275Z,61.61
2022-10-23T15:41:31.195Z,61.88
2022-10-23T15:44:01.927Z,62.12
2022-10-23T15:46:28.921Z,62.86
2022-10-23T15:48:55.580Z,63.08
2022-10-23T15:51:22.142Z,63.51
2022-10-23T15:53:49.018Z,63.18
2022-10-23T15:56:15.646Z,63.64
2022-10-23T15:58:42.252Z,63.82
2022-10-23T16:01:08.974Z,64.63
2022-10-23T16:03:37.093Z,65.41
2022-10-23T16:06:16.231Z,64.96
2022-10-23T16:08:46.243Z,64.47
2022-10-23T16:11:21.817Z,64.82
2022-10-23T16:13:49.454Z,64.54
2022-10-23T16:16:16.488Z,65.72
2022-10-23T16:18:44.575Z,66.44
2022-10-23T16:21:26.414Z,65.40
2022-10-23T16:23:56.944Z,66.46
2022-10-23T16:26:23.772Z,67.38
2022-10-23T16:29:00.224Z,67.08
2022-10-23T16:31:27.849Z,66.22
2022-10-23T16:33:54.707Z,66.20
2022-10-23T16:36:21.515Z,66.16
2022-10-23T16:39:14.931Z,66.23
2022-10-23T16:41:59.935Z,65.64
2022-10-23T16:44:36.350Z,66.05
2022-10-23T16:47:05.900Z,65.99
2022-10-23T16:49:32.490Z,66.63
2022-10-23T16:51:59.095Z,66.89
2022-10-23T16:54:25.738Z,66.74
2022-10-23T16:56:52.286Z,66.78
2022-10-23T16:59:19.150Z,66.59
2022-10-23T17:01:45.839Z,66.31
2022-10-23T17:04:12.429Z,66.42
2022-10-23T17:06:38.941Z,65.92
2022-10-23T17:09:06.076Z,65.25
2022-10-23T17:11:35.248Z,65.04
2022-10-23T17:14:13.910Z,63.87
2022-10-23T17:16:44.410Z,63.50
2022-10-23T17:19:20.829Z,63.30
2022-10-23T17:21:54.531Z,64.15
2022-10-23T17:24:21.471Z,63.76
2022-10-23T17:26:48.499Z,64.22
2022-10-23T17:29:15.145Z,63.75
2022-10-23T17:31:47.413Z,64.38
2022-10-23T17:34:19.374Z,63.71
2022-10-23T17:36:49.296Z,63.82
2022-10-23T17:39:18.902Z,63.67
2022-10-23T17:41:45.734Z,64.18
2022-10-23T17:44:12.420Z,63.97
2022-10-23T17:46:39.279Z,64.92
2022-10-23T17:49:06.122Z,66.26
2022-10-23T17:51:34.151Z,65.94
2022-10-23T17:54:02.857Z,66.66
2022-10-23T17:56:31.068Z,66.65
2022-10-23T17:59:04.598Z,67.18
2022-10-23T18:01:31.649Z,67.09
2022-10-23T18:04:01.942Z,67.68
2022-10-23T18:06:34.560Z,67.30
2022-10-23T18:09:02.331Z,67.30
2022-10-23T18:11:34.376Z,67.70
2022-10-23T18:14:01.376Z,68.05
2022-10-23T18:16:28.526Z,68.18
2022-10-23T18:18:55.941Z,68.65
2022-10-23T18:21:24.147Z,68.44
2022-10-23T18:23:51.552Z,68.30
2022-10-23T18:26:24.653Z,68.42
2022-10-23T18:28:53.575Z,68.40
2022-10-23T18:31:20.714Z,67.91
2022-10-23T18:33:47.740Z,67.61
2022-10-23T18:36:23.950Z,67.81
2022-10-23T18:38:51.674Z,67.55
2022-10-23T18:41:19.604Z,67.60
2022-10-23T18:43:46.209Z,67.26
2022-10-23T18:46:13.535Z,64.19
2022-10-23T18:48:40.906Z,62.92
2022-10-23T18:51:15.913Z,62.27
2022-10-23T18:53:46.654Z,62.11
2022-10-23T18:56:14.987Z,61.92
2022-10-23T18:58:42.418Z,61.02
2022-10-23T19:01:09.178Z,60.62
2022-10-23T19:03:35.824Z,61.20
2022-10-23T19:06:02.418Z,61.87
2022-10-23T19:08:29.165Z,62.10
2022-10-23T19:10:57.469Z,62.36
2022-10-23T19:13:24.000Z,62.76
2022-10-23T19:15:50.497Z,63.42
2022-10-23T19:18:17.081Z,64.04
2022-10-23T19:20:44.086Z,64.22
2022-10-23T19:23:12.804Z,64.33
2022-10-23T19:25:45.264Z,64.81
2022-10-23T19:28:11.833Z,64.31
2022-10-23T19:30:39.233Z,65.31
2022-10-23T19:33:05.865Z,65.29
2022-10-23T19:35:32.487Z,65.23
2022-10-23T19:37:59.630Z,65.54
2022-10-23T19:40:26.194Z,65.57
2022-10-23T19:42:54.179Z,66.21
2022-10-23T19:45:20.890Z,66.06
2022-10-23T19:47:47.876Z,66.33
2022-10-23T19:50:14.538Z,66.33
2022-10-23T19:52:41.119Z,66.15
2022-10-23T19:55:08.867Z,65.74
2022-10-23T19:57:36.954Z,66.42
2022-10-23T20:00:06.042Z,65.57
2022-10-23T20:02:36.920Z,66.77
2022-10-23T20:05:07.367Z,65.03
2022-10-23T20:07:34.548Z,66.25
2022-10-23T20:10:01.374Z,66.02
2022-10-23T20:12:28.014Z,65.96
2022-10-23T20:14:55.442Z,66.20
2022-10-23T20:17:22.204Z,65.70
2022-10-23T20:19:49.345Z,65.56
2022-10-23T20:22:16.754Z,65.27
2022-10-23T20:24:43.456Z,64.85
2022-10-23T20:27:10.932Z,65.38
2022-10-23T20:29:37.795Z,64.73
2022-10-23T20:32:04.515Z,64.17
2022-10-23T20:34:31.276Z,63.29
2022-10-23T20:36:59.767Z,62.43
2022-10-23T20:39:29.560Z,61.13
2022-10-23T20:41:56.750Z,59.40
2022-10-23T20:44:24.128Z,59.50
2022-10-23T20:46:51.753Z,58.76
2022-10-23T20:49:19.014Z,58.49
2022-10-23T20:51:54.805Z,58.51
2022-10-23T20:54:26.038Z,57.77
2022-10-23T20:56:55.205Z,57.12
2022-10-23T20:59:22.437Z,57.43
2022-10-23T21:01:51.260Z,57.90
2022-10-23T21:04:21.533Z,57.74
2022-10-23T21:07:10.784Z,56.61
2022-10-23T21:09:38.994Z,57.23
2022-10-23T21:12:06.627Z,57.32
2022-10-23T21:14:34.262Z,57.08
2022-10-23T21:17:00.931Z,57.18
2022-10-23T21:19:27.581Z,56.68
2022-10-23T21:21:54.490Z,56.54
2022-10-23T21:24:21.358Z,56.50
2022-10-23T21:26:48.084Z,57.00
2022-10-23T21:29:19.475Z,56.28
2022-10-23T21:31:58.607Z,56.93
2022-10-23T21:34:26.282Z,56.63
2022-10-23T21:39:40.863Z,56.44
2022-10-23T21:42:07.561Z,55.61
2022-10-23T21:44:34.136Z,55.22
2022-10-23T21:47:00.698Z,56.18
2022-10-23T21:49:27.385Z,55.95
2022-10-23T21:51:55.084Z,55.25
2022-10-23T21:54:22.120Z,55.32
2022-10-23T21:56:50.968Z,55.64
2022-10-23T21:59:20.436Z,55.67
2022-10-23T22:01:48.126Z,55.16
2022-10-23T22:04:18.262Z,54.83
2022-10-23T22:06:45.857Z,55.39
2022-10-23T22:09:14.215Z,55.12
2022-10-23T22:11:41.210Z,53.43
2022-10-23T22:14:07.999Z,54.97
2022-10-23T22:16:34.621Z,55.26
2022-10-23T22:19:01.683Z,54.31
2022-10-23T22:21:29.776Z,55.41
2022-10-23T22:23:58.653Z,55.40
2022-10-23T22:26:47.238Z,55.14
2022-10-23T22:29:15.996Z,55.30
2022-10-23T22:31:45.685Z,55.55
2022-10-23T22:34:26.735Z,55.33
2022-10-23T22:37:00.703Z,56.51
2022-10-23T22:39:27.325Z,55.47
2022-10-23T22:41:54.037Z,55.63
2022-10-23T22:44:20.653Z,55.94
2022-10-23T22:46:47.226Z,55.42
2022-10-23T22:49:13.840Z,54.94
2022-10-23T22:51:40.538Z,55.52
2022-10-23T22:54:07.313Z,55.36
2022-10-23T22:56:34.584Z,56.14
2022-10-23T22:59:01.366Z,55.07
2022-10-23T23:01:37.412Z,55.52
2022-10-23T23:04:13.976Z,55.07
2022-10-23T23:06:50.626Z,55.40
2022-10-23T23:09:18.616Z,54.83
2022-10-23T23:11:51.755Z,56.60
2022-10-23T23:14:24.100Z,56.21
2022-10-23T23:16:52.612Z,56.48
2022-10-23T23:19:19.809Z,55.67
2022-10-23T23:21:46.367Z,56.11
2022-10-23T23:24:13.026Z,56.36
2022-10-23T23:26:39.726Z,54.98
2022-10-23T23:29:06.419Z,55.75
2022-10-23T23:31:33.364Z,55.92
2022-10-23T23:33:59.980Z,55.99
2022-10-23T23:36:27.516Z,55.70
2022-10-23T23:38:55.534Z,55.90
2022-10-23T23:41:22.936Z,56.43
2022-10-23T23:43:49.762Z,55.64
2022-10-23T23:46:17.729Z,54.80
2022-10-23T23:48:47.885Z,55.39
2022-10-23T23:51:20.349Z,55.11
2022-10-23T23:53:47.660Z,54.79
2022-10-23T23:56:14.174Z,55.39
2022-10-23T23:58:41.260Z,56.48
